KABE/ABE METAR and TAF weather

Enter ICAO airport designator
Station Type Date Time Source
KABE METAR 2022/07/03 12:51 UTC NOAA

KABE 031251Z 08008G18KT 10SM CLR 24/14 A3005 RMK AO2 SLP173 T02390144


Station Type Date Time Source
KABE Decoded METAR 2022/07/03 12:51 UTC NOAA

LEHIGH VALLEY INTERNATIONAL AIRPORT, PA, United States (KABE) 40-39N 075-27W 114M
Jul 03, 2022 - 08:51 AM EDT / 2022.07.03 1251 UTC
Wind: from the E (080 degrees) at 9 MPH (8 KT) gusting to 21 MPH (18 KT):0
Visibility: 10 mile(s):0
Sky conditions: clear
Temperature: 75.0 F (23.9 C)
Dew Point: 57.9 F (14.4 C)
Relative Humidity: 55%
Pressure (altimeter): 30.05 in. Hg (1017 hPa)
ob: KABE 031251Z 08008G18KT 10SM CLR 24/14 A3005 RMK AO2 SLP173 T02390144
cycle: 13

Station Type Date Time Source
KABE TAF 2022/07/03 12:24 UTC NOAA

TAF KABE 031121Z 0312/0412 32005KT P6SM VCSH SCT060 BKN120
FM031500 34008KT P6SM BKN250
FM032200 32005KT P6SM FEW250

Example: see airport list